National Weather Service United States Department of Commerce

This is an experimental project that is derived straight from the NWS Billings aviation grids. 
There is no human interaction or quality control with this forecast and amendments are not issued.

 

TAF
K3U4 040510Z 0406/0506 00000KT P6SM SCT035
     FM041100 00000KT P6SM BKN040
     FM041200 00000KT P6SM SCT045
      AMD NOT SKED. UNFL=

TAF
KBHK 040510Z 0406/0506 00000KT P6SM BKN019
     FM040900 VRB03KT 1 1/2SM BR BKN017
     FM041000 VRB03KT 1/2SM FG BKN018
     FM041300 VRB03KT 3/4SM BR BKN018
     FM041500 VRB05KT 5SM BR BKN020
     FM041600 29007KT P6SM SCT022
      AMD NOT SKED. UNFL=

TAF
K6S0 040510Z 0406/0506 23006KT P6SM FEW050
     FM040800 24007KT P6SM FEW060
     FM041600 26010G19KT P6SM SKC
     FM041900 25009KT P6SM FEW070
     FM042200 32008KT P6SM FEW080
     FM050000 13006KT P6SM FEW080
      AMD NOT SKED. UNFL=

TAF
K6S1 040510Z 0406/0506 VRB05KT P6SM FEW050
     FM041600 19007KT P6SM SKC
     FM042300 02007KT P6SM FEW080
      AMD NOT SKED. UNFL=

TAF
K00F 040510Z 0406/0506 VRB03KT P6SM SCT023
     FM040900 00000KT P6SM BKN030
     FM041000 00000KT P6SM SCT030
     FM041100 00000KT P6SM BKN029
     FM041200 00000KT P6SM SCT030
     FM042300 VRB05KT P6SM FEW060
      AMD NOT SKED. UNFL=

TAF
KM46 040510Z 0406/0506 VRB03KT P6SM FEW035
      AMD NOT SKED. UNFL=

TAF
K6S3 040510Z 0406/0506 VRB03KT P6SM FEW060
      AMD NOT SKED. UNFL=

TAF
K97M 040510Z 0406/0506 VRB05KT P6SM BKN017
     FM040700 VRB05KT P6SM BKN017
     FM040800 29006KT 3/4SM BR BKN017
     FM041400 VRB05KT 1/4SM SCT018
     FM041500 29006KT P6SM BKN018
     FM041800 30007KT P6SM SCT023
      AMD NOT SKED. UNFL=

TAF
K1S3 040510Z 0406/0506 VRB04KT P6SM FEW040
     FM041500 00000KT P6SM FEW050
      AMD NOT SKED. UNFL=

TAF
K5U7 040510Z 0406/0506 VRB04KT P6SM FEW050
     FM041800 26007KT P6SM SKC
     FM050000 01006KT P6SM FEW080
      AMD NOT SKED. UNFL=

TAF
K29S 040510Z 0406/0506 VRB03KT P6SM FEW060
     FM042300 32007KT P6SM FEW090
      AMD NOT SKED. UNFL=

TAF
K00U 040510Z 0406/0506 00000KT P6SM FEW045
      AMD NOT SKED. UNFL=

TAF
KHWQ 040510Z 0406/0506 VRB05KT P6SM FEW060
     FM040800 25007KT P6SM FEW070
     FM041200 27009KT P6SM FEW070
     FM041800 29006KT P6SM SKC
     FM042200 25007KT P6SM SKC
     FM050300 VRB05KT P6SM FEW100
      AMD NOT SKED. UNFL=

TAF
K6U7 040510Z 0406/0506 00000KT P6SM FEW045
      AMD NOT SKED. UNFL=

TAF
K6S8 040510Z 0406/0506 VRB05KT P6SM SCT050
     FM041200 24007KT P6SM FEW060
      AMD NOT SKED. UNFL=

TAF
K80S 040510Z 0406/0506 00000KT P6SM FEW050
      AMD NOT SKED. UNFL=

TAF
KRED 040510Z 0406/0506 VRB05KT P6SM FEW050
     FM041800 02007KT P6SM SKC
      AMD NOT SKED. UNFL=

TAF
KRPX 040510Z 0406/0506 00000KT P6SM FEW050
      AMD NOT SKED. UNFL=

TAF
K8U0 040510Z 0406/0506 00000KT P6SM FEW060
      AMD NOT SKED. UNFL=

TAF
K9U1 040510Z 0406/0506 VRB03KT P6SM FEW050
      AMD NOT SKED. UNFL=